Kanopolis, KS

5:51 AM CDT on October 31, 2014 (GMT -0500)
Wilson | Change Station
CLOSE
Current Station
Personal Weather Station
Location: Wilson, KS
Elevation: 1689 ft
Nearby Weather Stations
Active Advisory: Freeze Warning

Elev 1689 ft 38.82 °N, 98.47 °W | Updated 22 seconds ago

Mostly Cloudy
Mostly Cloudy
35.2 °F
Feels Like 30 °F
N
6.2
Wind Variable Wind from NNW
Gusts 9.9 mph

Today
High -- | Low -- °F
--% Chance of Precip.
Yesterday
High -- | Low -- °F
Precip. -- in
7:58 AM 6:33 PM
First Quarter, 54% visible
Pressure 30.45 in
Visibility 10.0 miles
Clouds Mostly Cloudy 2600 ft
Windchill 30 °F
Dew Point 21 °F
Humidity 59%
Rainfall 0.00 in
Snow Depth Not available.
UV 0 out of 12
Pollen 2.40 out of 12
Air Quality Not available.
Flu Activity Not available.
SPECI KSLN 311014Z AUTO 35010KT 10SM BKN026 04/01 A3045 RMK AO2 T00440006

More Conditions Fewer Conditions

Pressure 30.45 in
Visibility 10.0 miles
Clouds Mostly Cloudy 2600 ft
Windchill 30 °F
Dew Point 21 °F
Humidity 59%
Rainfall 0.00 in
Snow Depth Not available.
UV 0 out of 12
Pollen 2.40 out of 12
Air Quality Not available.
Flu Activity Not available.
SPECI KSLN 311014Z AUTO 35010KT 10SM BKN026 04/01 A3045 RMK AO2 T00440006

More Conditions Fewer Conditions

10-Day Weather Forecast

Almanac

Astronomy

Oct. 31, 2014 Rise Set
Actual Time
Civil Twilight
Nautical Twilight
Astronomical Twilight
Moon
Length of Visible Light
Length of Day
Tomorrow will be .
, % of the Moon is Illuminated

Today's Extremes

State Highs State Lows

Community

WunderPhotos

Upload Photos

1,766,580 photos uploaded!

WunderBlogs® & News

Nearby

Air Quality

  Air Quality AQ Index Pollutant
Not available.

Snow Depth

Station Depth Elevation

Earthquake Activity

City Distance Mag. Time & Date
Minimum magnitude displayed is 2.5.

Coastal Water Temperatures

Place Temperature

Nearby Weather Stations